sensor_id;sensor_type;location;lat;lon;timestamp;P1;durP1;ratioP1;P2;durP2;ratioP2
19253;SDS011;9761;50.926;5.330;2023-02-01T00:00:15;19.67;;;8.07;;
19253;SDS011;9761;50.926;5.330;2023-02-01T00:02:45;16.27;;;7.70;;
19253;SDS011;9761;50.926;5.330;2023-02-01T00:05:12;16.73;;;7.17;;
19253;SDS011;9761;50.926;5.330;2023-02-01T00:07:40;12.50;;;7.70;;
19253;SDS011;9761;50.926;5.330;2023-02-01T00:10:12;20.00;;;7.87;;
19253;SDS011;9761;50.926;5.330;2023-02-01T00:12:39;17.87;;;7.77;;
19253;SDS011;9761;50.926;5.330;2023-02-01T00:15:07;17.53;;;7.73;;
19253;SDS011;9761;50.926;5.330;2023-02-01T00:17:34;19.77;;;8.73;;
19253;SDS011;9761;50.926;5.330;2023-02-01T00:20:01;19.00;;;8.40;;
19253;SDS011;9761;50.926;5.330;2023-02-01T00:22:29;21.47;;;8.70;;
19253;SDS011;9761;50.926;5.330;2023-02-01T00:24:57;17.13;;;9.30;;
19253;SDS011;9761;50.926;5.330;2023-02-01T00:27:25;21.17;;;9.90;;
19253;SDS011;9761;50.926;5.330;2023-02-01T00:29:53;19.90;;;10.20;;
19253;SDS011;9761;50.926;5.330;2023-02-01T00:32:21;17.23;;;9.07;;
19253;SDS011;9761;50.926;5.330;2023-02-01T00:34:48;15.00;;;9.57;;
19253;SDS011;9761;50.926;5.330;2023-02-01T00:37:15;27.03;;;11.43;;
19253;SDS011;9761;50.926;5.330;2023-02-01T00:42:42;22.30;;;9.87;;
19253;SDS011;9761;50.926;5.330;2023-02-01T00:45:09;17.43;;;9.37;;
19253;SDS011;9761;50.926;5.330;2023-02-01T00:47:37;14.27;;;9.83;;
19253;SDS011;9761;50.926;5.330;2023-02-01T00:50:04;16.37;;;9.53;;
19253;SDS011;9761;50.926;5.330;2023-02-01T00:52:31;14.37;;;10.53;;
19253;SDS011;9761;50.926;5.330;2023-02-01T00:54:58;19.47;;;10.23;;
19253;SDS011;9761;50.926;5.330;2023-02-01T00:57:25;18.53;;;9.63;;
19253;SDS011;9761;50.926;5.330;2023-02-01T00:59:54;20.07;;;9.70;;
19253;SDS011;9761;50.926;5.330;2023-02-01T01:02:21;22.07;;;10.33;;
19253;SDS011;9761;50.926;5.330;2023-02-01T01:04:48;22.97;;;9.93;;
19253;SDS011;9761;50.926;5.330;2023-02-01T01:07:15;17.50;;;10.43;;
19253;SDS011;9761;50.926;5.330;2023-02-01T01:09:42;22.10;;;11.47;;
19253;SDS011;9761;50.926;5.330;2023-02-01T01:12:09;22.17;;;10.60;;
19253;SDS011;9761;50.926;5.330;2023-02-01T01:14:36;17.00;;;10.17;;
19253;SDS011;9761;50.926;5.330;2023-02-01T01:17:05;21.73;;;10.33;;
19253;SDS011;9761;50.926;5.330;2023-02-01T01:19:32;21.00;;;10.80;;
19253;SDS011;9761;50.926;5.330;2023-02-01T01:21:59;23.63;;;11.00;;
19253;SDS011;9761;50.926;5.330;2023-02-01T01:27:11;19.70;;;10.03;;
19253;SDS011;9761;50.926;5.330;2023-02-01T01:29:39;21.90;;;11.20;;
19253;SDS011;9761;50.926;5.330;2023-02-01T01:32:07;25.47;;;11.50;;
19253;SDS011;9761;50.926;5.330;2023-02-01T01:34:34;22.57;;;11.00;;
19253;SDS011;9761;50.926;5.330;2023-02-01T01:37:01;22.93;;;10.97;;
19253;SDS011;9761;50.926;5.330;2023-02-01T01:45:43;26.93;;;13.40;;
19253;SDS011;9761;50.926;5.330;2023-02-01T01:48:13;19.00;;;11.53;;
19253;SDS011;9761;50.926;5.330;2023-02-01T01:50:46;23.57;;;11.37;;
19253;SDS011;9761;50.926;5.330;2023-02-01T01:53:16;25.67;;;11.60;;
19253;SDS011;9761;50.926;5.330;2023-02-01T01:55:46;20.70;;;11.37;;
19253;SDS011;9761;50.926;5.330;2023-02-01T01:58:15;20.50;;;11.37;;
19253;SDS011;9761;50.926;5.330;2023-02-01T02:00:45;22.67;;;11.43;;
19253;SDS011;9761;50.926;5.330;2023-02-01T02:03:15;29.00;;;12.40;;
19253;SDS011;9761;50.926;5.330;2023-02-01T02:05:45;22.03;;;11.53;;
19253;SDS011;9761;50.926;5.330;2023-02-01T02:08:15;25.63;;;11.50;;
19253;SDS011;9761;50.926;5.330;2023-02-01T02:10:43;24.70;;;10.20;;
19253;SDS011;9761;50.926;5.330;2023-02-01T02:16:04;20.57;;;10.30;;
19253;SDS011;9761;50.926;5.330;2023-02-01T02:18:45;21.53;;;9.53;;
19253;SDS011;9761;50.926;5.330;2023-02-01T02:21:26;21.93;;;9.60;;
19253;SDS011;9761;50.926;5.330;2023-02-01T02:24:16;18.23;;;8.40;;
19253;SDS011;9761;50.926;5.330;2023-02-01T02:27:06;18.73;;;8.40;;
19253;SDS011;9761;50.926;5.330;2023-02-01T02:33:20;25.60;;;9.10;;
19253;SDS011;9761;50.926;5.330;2023-02-01T02:36:15;13.80;;;6.77;;
19253;SDS011;9761;50.926;5.330;2023-02-01T02:41:26;14.13;;;5.90;;
19253;SDS011;9761;50.926;5.330;2023-02-01T02:44:17;20.00;;;5.57;;
19253;SDS011;9761;50.926;5.330;2023-02-01T02:47:09;14.07;;;4.77;;
19253;SDS011;9761;50.926;5.330;2023-02-01T02:49:54;13.33;;;4.00;;
19253;SDS011;9761;50.926;5.330;2023-02-01T02:52:44;13.10;;;3.63;;
19253;SDS011;9761;50.926;5.330;2023-02-01T02:55:33;15.93;;;4.50;;
19253;SDS011;9761;50.926;5.330;2023-02-01T02:58:04;18.23;;;3.93;;
19253;SDS011;9761;50.926;5.330;2023-02-01T03:00:50;9.80;;;2.80;;
19253;SDS011;9761;50.926;5.330;2023-02-01T03:03:37;10.30;;;2.83;;
19253;SDS011;9761;50.926;5.330;2023-02-01T03:06:23;14.83;;;3.63;;
19253;SDS011;9761;50.926;5.330;2023-02-01T03:08:51;13.13;;;3.00;;
19253;SDS011;9761;50.926;5.330;2023-02-01T03:11:22;17.83;;;4.40;;
19253;SDS011;9761;50.926;5.330;2023-02-01T03:14:11;15.27;;;2.80;;
19253;SDS011;9761;50.926;5.330;2023-02-01T03:16:41;11.07;;;3.30;;
19253;SDS011;9761;50.926;5.330;2023-02-01T03:19:14;16.03;;;3.30;;
19253;SDS011;9761;50.926;5.330;2023-02-01T03:21:46;10.03;;;2.60;;
19253;SDS011;9761;50.926;5.330;2023-02-01T03:24:16;10.60;;;3.03;;
19253;SDS011;9761;50.926;5.330;2023-02-01T03:26:47;10.97;;;3.33;;
19253;SDS011;9761;50.926;5.330;2023-02-01T03:29:18;10.07;;;3.27;;
19253;SDS011;9761;50.926;5.330;2023-02-01T03:31:49;12.37;;;2.90;;
19253;SDS011;9761;50.926;5.330;2023-02-01T03:34:18;7.30;;;2.60;;
19253;SDS011;9761;50.926;5.330;2023-02-01T03:36:48;12.00;;;3.73;;
19253;SDS011;9761;50.926;5.330;2023-02-01T03:39:18;13.67;;;3.37;;
19253;SDS011;9761;50.926;5.330;2023-02-01T03:41:50;10.37;;;4.27;;
19253;SDS011;9761;50.926;5.330;2023-02-01T03:47:16;11.17;;;3.00;;
19253;SDS011;9761;50.926;5.330;2023-02-01T03:49:47;9.30;;;2.83;;
19253;SDS011;9761;50.926;5.330;2023-02-01T03:52:18;12.73;;;3.40;;
19253;SDS011;9761;50.926;5.330;2023-02-01T03:54:49;16.40;;;3.17;;
19253;SDS011;9761;50.926;5.330;2023-02-01T03:57:19;11.30;;;2.60;;
19253;SDS011;9761;50.926;5.330;2023-02-01T03:59:50;14.00;;;3.10;;
19253;SDS011;9761;50.926;5.330;2023-02-01T04:02:18;9.53;;;2.83;;
19253;SDS011;9761;50.926;5.330;2023-02-01T04:04:45;9.73;;;2.63;;
19253;SDS011;9761;50.926;5.330;2023-02-01T04:07:12;13.87;;;3.63;;
19253;SDS011;9761;50.926;5.330;2023-02-01T04:09:40;15.47;;;2.60;;
19253;SDS011;9761;50.926;5.330;2023-02-01T04:12:07;13.40;;;3.17;;
19253;SDS011;9761;50.926;5.330;2023-02-01T04:14:34;8.57;;;2.63;;
19253;SDS011;9761;50.926;5.330;2023-02-01T04:17:01;13.50;;;2.97;;
19253;SDS011;9761;50.926;5.330;2023-02-01T04:19:28;13.30;;;3.27;;
19253;SDS011;9761;50.926;5.330;2023-02-01T04:21:55;13.33;;;3.07;;
19253;SDS011;9761;50.926;5.330;2023-02-01T04:24:22;14.17;;;3.40;;
19253;SDS011;9761;50.926;5.330;2023-02-01T04:26:50;10.07;;;2.47;;
19253;SDS011;9761;50.926;5.330;2023-02-01T04:29:17;10.63;;;3.00;;
19253;SDS011;9761;50.926;5.330;2023-02-01T04:31:45;11.77;;;3.07;;
19253;SDS011;9761;50.926;5.330;2023-02-01T04:34:12;16.87;;;3.70;;
19253;SDS011;9761;50.926;5.330;2023-02-01T04:36:39;11.10;;;3.17;;
19253;SDS011;9761;50.926;5.330;2023-02-01T04:39:08;14.00;;;2.53;;
19253;SDS011;9761;50.926;5.330;2023-02-01T04:41:35;14.27;;;3.40;;
19253;SDS011;9761;50.926;5.330;2023-02-01T04:44:03;10.70;;;2.90;;
19253;SDS011;9761;50.926;5.330;2023-02-01T04:46:31;11.03;;;3.43;;
19253;SDS011;9761;50.926;5.330;2023-02-01T04:48:58;12.43;;;3.20;;
19253;SDS011;9761;50.926;5.330;2023-02-01T04:51:25;11.87;;;3.07;;
19253;SDS011;9761;50.926;5.330;2023-02-01T04:53:52;13.53;;;3.07;;
19253;SDS011;9761;50.926;5.330;2023-02-01T04:56:20;14.33;;;3.13;;
19253;SDS011;9761;50.926;5.330;2023-02-01T04:58:48;12.63;;;2.60;;
19253;SDS011;9761;50.926;5.330;2023-02-01T05:01:16;15.20;;;2.67;;
19253;SDS011;9761;50.926;5.330;2023-02-01T05:03:43;10.37;;;2.93;;
19253;SDS011;9761;50.926;5.330;2023-02-01T05:06:11;19.27;;;3.83;;
19253;SDS011;9761;50.926;5.330;2023-02-01T05:11:30;14.73;;;3.60;;
19253;SDS011;9761;50.926;5.330;2023-02-01T05:14:14;18.53;;;3.03;;
19253;SDS011;9761;50.926;5.330;2023-02-01T05:16:45;18.90;;;3.47;;
19253;SDS011;9761;50.926;5.330;2023-02-01T05:19:12;13.27;;;3.20;;
19253;SDS011;9761;50.926;5.330;2023-02-01T05:21:39;11.87;;;2.77;;
19253;SDS011;9761;50.926;5.330;2023-02-01T05:24:07;15.53;;;3.20;;
19253;SDS011;9761;50.926;5.330;2023-02-01T05:26:38;13.60;;;2.93;;
19253;SDS011;9761;50.926;5.330;2023-02-01T05:29:06;12.87;;;3.10;;
19253;SDS011;9761;50.926;5.330;2023-02-01T05:31:35;8.87;;;3.17;;
19253;SDS011;9761;50.926;5.330;2023-02-01T05:34:03;13.77;;;2.70;;
19253;SDS011;9761;50.926;5.330;2023-02-01T05:36:31;9.40;;;3.40;;
19253;SDS011;9761;50.926;5.330;2023-02-01T05:38:58;10.43;;;2.90;;
19253;SDS011;9761;50.926;5.330;2023-02-01T05:41:26;11.30;;;3.43;;
19253;SDS011;9761;50.926;5.330;2023-02-01T05:43:53;17.43;;;3.33;;
19253;SDS011;9761;50.926;5.330;2023-02-01T05:46:21;15.07;;;3.13;;
19253;SDS011;9761;50.926;5.330;2023-02-01T05:48:48;15.93;;;2.87;;
19253;SDS011;9761;50.926;5.330;2023-02-01T05:51:16;9.07;;;3.23;;
19253;SDS011;9761;50.926;5.330;2023-02-01T05:53:44;9.43;;;3.30;;
19253;SDS011;9761;50.926;5.330;2023-02-01T05:56:12;24.50;;;3.90;;
19253;SDS011;9761;50.926;5.330;2023-02-01T05:58:39;11.53;;;3.43;;
19253;SDS011;9761;50.926;5.330;2023-02-01T06:01:06;9.23;;;3.30;;
19253;SDS011;9761;50.926;5.330;2023-02-01T06:03:34;17.00;;;3.37;;
19253;SDS011;9761;50.926;5.330;2023-02-01T06:08:54;13.90;;;3.70;;
19253;SDS011;9761;50.926;5.330;2023-02-01T06:11:22;10.33;;;3.00;;
19253;SDS011;9761;50.926;5.330;2023-02-01T06:13:49;12.67;;;3.80;;
19253;SDS011;9761;50.926;5.330;2023-02-01T06:16:17;11.57;;;3.37;;
19253;SDS011;9761;50.926;5.330;2023-02-01T06:19:02;16.70;;;3.07;;
19253;SDS011;9761;50.926;5.330;2023-02-01T06:21:31;10.90;;;3.73;;
19253;SDS011;9761;50.926;5.330;2023-02-01T06:24:00;9.70;;;3.43;;
19253;SDS011;9761;50.926;5.330;2023-02-01T06:26:27;8.47;;;3.17;;
19253;SDS011;9761;50.926;5.330;2023-02-01T06:28:57;12.07;;;3.07;;
19253;SDS011;9761;50.926;5.330;2023-02-01T06:31:24;10.20;;;3.33;;
19253;SDS011;9761;50.926;5.330;2023-02-01T06:33:52;15.70;;;3.87;;
19253;SDS011;9761;50.926;5.330;2023-02-01T06:36:19;22.10;;;3.70;;
19253;SDS011;9761;50.926;5.330;2023-02-01T06:38:47;19.23;;;3.60;;
19253;SDS011;9761;50.926;5.330;2023-02-01T06:41:17;14.63;;;3.10;;
19253;SDS011;9761;50.926;5.330;2023-02-01T06:43:45;13.17;;;3.17;;
19253;SDS011;9761;50.926;5.330;2023-02-01T06:46:12;13.27;;;3.13;;
19253;SDS011;9761;50.926;5.330;2023-02-01T06:48:40;11.37;;;2.63;;
19253;SDS011;9761;50.926;5.330;2023-02-01T06:51:14;18.43;;;4.77;;
19253;SDS011;9761;50.926;5.330;2023-02-01T06:53:47;13.53;;;2.47;;
19253;SDS011;9761;50.926;5.330;2023-02-01T06:56:17;11.93;;;2.87;;
19253;SDS011;9761;50.926;5.330;2023-02-01T06:58:45;14.43;;;3.30;;
19253;SDS011;9761;50.926;5.330;2023-02-01T07:01:14;9.47;;;2.60;;
19253;SDS011;9761;50.926;5.330;2023-02-01T07:03:49;11.80;;;3.40;;
19253;SDS011;9761;50.926;5.330;2023-02-01T07:06:19;16.47;;;3.40;;
19253;SDS011;9761;50.926;5.330;2023-02-01T07:08:46;10.50;;;3.50;;
19253;SDS011;9761;50.926;5.330;2023-02-01T07:11:14;16.17;;;3.20;;
19253;SDS011;9761;50.926;5.330;2023-02-01T07:13:44;12.57;;;2.40;;
19253;SDS011;9761;50.926;5.330;2023-02-01T07:16:12;13.37;;;3.07;;
19253;SDS011;9761;50.926;5.330;2023-02-01T07:18:41;10.30;;;3.37;;
19253;SDS011;9761;50.926;5.330;2023-02-01T07:21:08;6.00;;;2.67;;
19253;SDS011;9761;50.926;5.330;2023-02-01T07:23:36;16.63;;;3.47;;
19253;SDS011;9761;50.926;5.330;2023-02-01T07:26:04;13.90;;;3.17;;
19253;SDS011;9761;50.926;5.330;2023-02-01T07:28:34;17.73;;;3.57;;
19253;SDS011;9761;50.926;5.330;2023-02-01T07:31:06;25.87;;;4.13;;
19253;SDS011;9761;50.926;5.330;2023-02-01T07:33:36;8.40;;;3.30;;
19253;SDS011;9761;50.926;5.330;2023-02-01T07:36:06;14.80;;;4.00;;
19253;SDS011;9761;50.926;5.330;2023-02-01T07:38:37;18.37;;;3.53;;
19253;SDS011;9761;50.926;5.330;2023-02-01T07:41:05;10.50;;;3.57;;
19253;SDS011;9761;50.926;5.330;2023-02-01T07:43:33;12.27;;;4.20;;
19253;SDS011;9761;50.926;5.330;2023-02-01T07:46:01;14.87;;;3.77;;
19253;SDS011;9761;50.926;5.330;2023-02-01T07:48:30;14.87;;;3.77;;
19253;SDS011;9761;50.926;5.330;2023-02-01T07:50:59;18.27;;;4.27;;
19253;SDS011;9761;50.926;5.330;2023-02-01T07:53:29;13.23;;;3.47;;
19253;SDS011;9761;50.926;5.330;2023-02-01T07:55:57;15.57;;;4.27;;
19253;SDS011;9761;50.926;5.330;2023-02-01T07:58:25;10.77;;;2.93;;
19253;SDS011;9761;50.926;5.330;2023-02-01T08:00:54;15.77;;;3.70;;
19253;SDS011;9761;50.926;5.330;2023-02-01T08:03:41;12.23;;;3.33;;
19253;SDS011;9761;50.926;5.330;2023-02-01T08:06:09;15.40;;;3.30;;
19253;SDS011;9761;50.926;5.330;2023-02-01T08:08:36;14.00;;;3.50;;
19253;SDS011;9761;50.926;5.330;2023-02-01T08:11:05;14.97;;;3.17;;
19253;SDS011;9761;50.926;5.330;2023-02-01T08:13:33;14.93;;;3.33;;
19253;SDS011;9761;50.926;5.330;2023-02-01T08:16:02;15.13;;;2.77;;
19253;SDS011;9761;50.926;5.330;2023-02-01T08:18:32;13.53;;;3.73;;
19253;SDS011;9761;50.926;5.330;2023-02-01T08:21:03;11.53;;;3.60;;
19253;SDS011;9761;50.926;5.330;2023-02-01T08:23:32;19.43;;;4.50;;
19253;SDS011;9761;50.926;5.330;2023-02-01T08:26:08;10.80;;;3.17;;
19253;SDS011;9761;50.926;5.330;2023-02-01T08:28:38;10.73;;;3.53;;
19253;SDS011;9761;50.926;5.330;2023-02-01T08:31:07;11.17;;;3.23;;
19253;SDS011;9761;50.926;5.330;2023-02-01T08:33:35;14.43;;;3.50;;
19253;SDS011;9761;50.926;5.330;2023-02-01T08:36:04;21.10;;;5.00;;
19253;SDS011;9761;50.926;5.330;2023-02-01T08:38:35;11.70;;;3.70;;
19253;SDS011;9761;50.926;5.330;2023-02-01T08:41:05;13.40;;;3.40;;
19253;SDS011;9761;50.926;5.330;2023-02-01T08:43:32;13.83;;;3.13;;
19253;SDS011;9761;50.926;5.330;2023-02-01T08:46:01;14.47;;;3.93;;
19253;SDS011;9761;50.926;5.330;2023-02-01T08:48:28;18.80;;;3.43;;
19253;SDS011;9761;50.926;5.330;2023-02-01T08:50:55;12.53;;;2.63;;
19253;SDS011;9761;50.926;5.330;2023-02-01T08:53:24;9.97;;;2.77;;
19253;SDS011;9761;50.926;5.330;2023-02-01T08:55:51;9.57;;;3.40;;
19253;SDS011;9761;50.926;5.330;2023-02-01T08:58:18;11.93;;;3.63;;
19253;SDS011;9761;50.926;5.330;2023-02-01T09:00:46;13.73;;;2.93;;
19253;SDS011;9761;50.926;5.330;2023-02-01T09:03:16;12.47;;;3.47;;
19253;SDS011;9761;50.926;5.330;2023-02-01T09:05:44;11.07;;;3.17;;
19253;SDS011;9761;50.926;5.330;2023-02-01T09:08:13;17.00;;;3.50;;
19253;SDS011;9761;50.926;5.330;2023-02-01T09:10:43;14.20;;;3.33;;
19253;SDS011;9761;50.926;5.330;2023-02-01T09:13:12;19.10;;;4.30;;
19253;SDS011;9761;50.926;5.330;2023-02-01T09:15:39;13.37;;;3.00;;
19253;SDS011;9761;50.926;5.330;2023-02-01T09:18:10;21.40;;;3.03;;
19253;SDS011;9761;50.926;5.330;2023-02-01T09:20:37;16.40;;;4.13;;
19253;SDS011;9761;50.926;5.330;2023-02-01T09:23:09;12.00;;;3.03;;
19253;SDS011;9761;50.926;5.330;2023-02-01T09:25:36;15.17;;;3.30;;
19253;SDS011;9761;50.926;5.330;2023-02-01T09:28:05;13.03;;;3.27;;
19253;SDS011;9761;50.926;5.330;2023-02-01T09:30:34;14.37;;;3.40;;
19253;SDS011;9761;50.926;5.330;2023-02-01T09:33:04;11.13;;;3.73;;
19253;SDS011;9761;50.926;5.330;2023-02-01T09:35:31;11.83;;;3.60;;
19253;SDS011;9761;50.926;5.330;2023-02-01T09:37:58;17.07;;;3.30;;
19253;SDS011;9761;50.926;5.330;2023-02-01T09:40:25;9.70;;;3.17;;
19253;SDS011;9761;50.926;5.330;2023-02-01T09:42:57;11.27;;;3.63;;
19253;SDS011;9761;50.926;5.330;2023-02-01T09:45:48;10.33;;;3.37;;
19253;SDS011;9761;50.926;5.330;2023-02-01T09:48:28;15.20;;;3.73;;
19253;SDS011;9761;50.926;5.330;2023-02-01T09:51:02;20.33;;;4.10;;
19253;SDS011;9761;50.926;5.330;2023-02-01T09:53:34;19.60;;;4.50;;
19253;SDS011;9761;50.926;5.330;2023-02-01T09:56:09;12.73;;;3.57;;
19253;SDS011;9761;50.926;5.330;2023-02-01T09:58:41;11.77;;;2.53;;
19253;SDS011;9761;50.926;5.330;2023-02-01T10:01:15;14.50;;;3.40;;
19253;SDS011;9761;50.926;5.330;2023-02-01T10:03:46;12.53;;;3.03;;
19253;SDS011;9761;50.926;5.330;2023-02-01T10:06:24;11.23;;;3.53;;
19253;SDS011;9761;50.926;5.330;2023-02-01T10:09:03;11.90;;;3.73;;
19253;SDS011;9761;50.926;5.330;2023-02-01T10:11:46;10.60;;;3.30;;
19253;SDS011;9761;50.926;5.330;2023-02-01T10:14:37;8.63;;;2.53;;
19253;SDS011;9761;50.926;5.330;2023-02-01T10:17:20;13.87;;;3.13;;
19253;SDS011;9761;50.926;5.330;2023-02-01T10:20:01;12.40;;;3.20;;
19253;SDS011;9761;50.926;5.330;2023-02-01T10:22:39;9.77;;;2.83;;
19253;SDS011;9761;50.926;5.330;2023-02-01T10:25:13;10.20;;;2.70;;
19253;SDS011;9761;50.926;5.330;2023-02-01T10:27:50;9.37;;;3.53;;
19253;SDS011;9761;50.926;5.330;2023-02-01T10:30:18;15.37;;;3.60;;
19253;SDS011;9761;50.926;5.330;2023-02-01T10:32:49;11.20;;;2.87;;
19253;SDS011;9761;50.926;5.330;2023-02-01T10:35:22;15.20;;;3.23;;
19253;SDS011;9761;50.926;5.330;2023-02-01T10:37:53;10.37;;;3.07;;
19253;SDS011;9761;50.926;5.330;2023-02-01T10:40:22;18.20;;;3.97;;
19253;SDS011;9761;50.926;5.330;2023-02-01T10:42:52;15.20;;;2.97;;
19253;SDS011;9761;50.926;5.330;2023-02-01T10:45:22;16.37;;;3.80;;
19253;SDS011;9761;50.926;5.330;2023-02-01T10:47:55;10.37;;;2.73;;
19253;SDS011;9761;50.926;5.330;2023-02-01T10:50:27;12.53;;;3.40;;
19253;SDS011;9761;50.926;5.330;2023-02-01T10:53:02;9.50;;;2.97;;
19253;SDS011;9761;50.926;5.330;2023-02-01T10:55:34;12.83;;;4.13;;
19253;SDS011;9761;50.926;5.330;2023-02-01T10:58:15;14.17;;;3.17;;
19253;SDS011;9761;50.926;5.330;2023-02-01T11:00:46;8.50;;;3.00;;
19253;SDS011;9761;50.926;5.330;2023-02-01T11:03:32;13.77;;;3.57;;
19253;SDS011;9761;50.926;5.330;2023-02-01T11:06:08;30.67;;;3.57;;
19253;SDS011;9761;50.926;5.330;2023-02-01T11:08:44;14.27;;;3.27;;
19253;SDS011;9761;50.926;5.330;2023-02-01T11:11:14;7.50;;;2.70;;
19253;SDS011;9761;50.926;5.330;2023-02-01T11:13:41;10.50;;;2.40;;
19253;SDS011;9761;50.926;5.330;2023-02-01T11:16:12;16.33;;;3.47;;
19253;SDS011;9761;50.926;5.330;2023-02-01T11:18:42;16.77;;;3.07;;
19253;SDS011;9761;50.926;5.330;2023-02-01T11:21:09;9.47;;;2.27;;
19253;SDS011;9761;50.926;5.330;2023-02-01T11:23:40;9.40;;;3.03;;
19253;SDS011;9761;50.926;5.330;2023-02-01T11:26:11;13.90;;;3.10;;
19253;SDS011;9761;50.926;5.330;2023-02-01T11:28:40;10.40;;;2.53;;
19253;SDS011;9761;50.926;5.330;2023-02-01T11:31:14;10.90;;;3.13;;
19253;SDS011;9761;50.926;5.330;2023-02-01T11:33:46;11.83;;;3.07;;
19253;SDS011;9761;50.926;5.330;2023-02-01T11:36:18;13.23;;;3.23;;
19253;SDS011;9761;50.926;5.330;2023-02-01T11:38:52;13.33;;;2.90;;
19253;SDS011;9761;50.926;5.330;2023-02-01T11:41:22;9.27;;;2.30;;
19253;SDS011;9761;50.926;5.330;2023-02-01T11:43:52;10.13;;;2.90;;
19253;SDS011;9761;50.926;5.330;2023-02-01T11:46:22;8.50;;;2.47;;
19253;SDS011;9761;50.926;5.330;2023-02-01T11:48:55;6.97;;;2.50;;
19253;SDS011;9761;50.926;5.330;2023-02-01T11:51:36;9.27;;;2.90;;
19253;SDS011;9761;50.926;5.330;2023-02-01T11:54:24;6.87;;;2.43;;
19253;SDS011;9761;50.926;5.330;2023-02-01T11:57:05;10.53;;;2.60;;
19253;SDS011;9761;50.926;5.330;2023-02-01T11:59:49;11.73;;;2.50;;
19253;SDS011;9761;50.926;5.330;2023-02-01T12:02:45;7.23;;;2.17;;
19253;SDS011;9761;50.926;5.330;2023-02-01T12:05:29;13.07;;;3.00;;
19253;SDS011;9761;50.926;5.330;2023-02-01T12:08:10;15.53;;;2.50;;
19253;SDS011;9761;50.926;5.330;2023-02-01T12:10:58;14.50;;;3.17;;
19253;SDS011;9761;50.926;5.330;2023-02-01T12:13:42;12.53;;;3.30;;
19253;SDS011;9761;50.926;5.330;2023-02-01T12:16:21;18.53;;;3.13;;
19253;SDS011;9761;50.926;5.330;2023-02-01T12:19:09;10.93;;;2.70;;
19253;SDS011;9761;50.926;5.330;2023-02-01T12:21:50;9.90;;;2.63;;
19253;SDS011;9761;50.926;5.330;2023-02-01T12:24:26;9.83;;;2.63;;
19253;SDS011;9761;50.926;5.330;2023-02-01T12:27:14;10.60;;;2.70;;
19253;SDS011;9761;50.926;5.330;2023-02-01T12:30:06;6.53;;;2.00;;
19253;SDS011;9761;50.926;5.330;2023-02-01T12:32:56;8.50;;;2.67;;
19253;SDS011;9761;50.926;5.330;2023-02-01T12:35:44;11.83;;;2.80;;
19253;SDS011;9761;50.926;5.330;2023-02-01T12:38:29;7.00;;;2.07;;
19253;SDS011;9761;50.926;5.330;2023-02-01T12:41:10;9.73;;;2.30;;
19253;SDS011;9761;50.926;5.330;2023-02-01T12:43:51;11.73;;;2.73;;
19253;SDS011;9761;50.926;5.330;2023-02-01T12:46:23;9.67;;;2.00;;
19253;SDS011;9761;50.926;5.330;2023-02-01T12:48:56;11.87;;;2.43;;
19253;SDS011;9761;50.926;5.330;2023-02-01T12:51:28;8.47;;;2.67;;
19253;SDS011;9761;50.926;5.330;2023-02-01T12:54:02;9.63;;;2.10;;
19253;SDS011;9761;50.926;5.330;2023-02-01T12:56:37;7.07;;;2.13;;
19253;SDS011;9761;50.926;5.330;2023-02-01T12:59:11;7.60;;;2.00;;
19253;SDS011;9761;50.926;5.330;2023-02-01T13:01:45;10.77;;;2.77;;
19253;SDS011;9761;50.926;5.330;2023-02-01T13:04:38;12.97;;;3.23;;
19253;SDS011;9761;50.926;5.330;2023-02-01T13:07:20;7.13;;;2.60;;
19253;SDS011;9761;50.926;5.330;2023-02-01T13:09:55;9.90;;;2.33;;
19253;SDS011;9761;50.926;5.330;2023-02-01T13:12:28;7.53;;;2.50;;
19253;SDS011;9761;50.926;5.330;2023-02-01T13:15:04;11.33;;;2.23;;
19253;SDS011;9761;50.926;5.330;2023-02-01T13:17:40;8.13;;;2.03;;
19253;SDS011;9761;50.926;5.330;2023-02-01T13:20:15;5.23;;;1.70;;
19253;SDS011;9761;50.926;5.330;2023-02-01T13:22:49;6.03;;;2.23;;
19253;SDS011;9761;50.926;5.330;2023-02-01T13:25:24;8.13;;;2.60;;
19253;SDS011;9761;50.926;5.330;2023-02-01T13:27:57;8.90;;;2.57;;
19253;SDS011;9761;50.926;5.330;2023-02-01T13:30:33;8.07;;;1.90;;
19253;SDS011;9761;50.926;5.330;2023-02-01T13:33:10;9.13;;;2.37;;
19253;SDS011;9761;50.926;5.330;2023-02-01T13:39:17;8.83;;;2.13;;
19253;SDS011;9761;50.926;5.330;2023-02-01T13:42:11;12.13;;;3.37;;
19253;SDS011;9761;50.926;5.330;2023-02-01T13:44:43;13.70;;;2.13;;
19253;SDS011;9761;50.926;5.330;2023-02-01T13:47:16;7.50;;;1.80;;
19253;SDS011;9761;50.926;5.330;2023-02-01T13:49:52;12.43;;;2.70;;
19253;SDS011;9761;50.926;5.330;2023-02-01T13:52:27;8.77;;;2.20;;
19253;SDS011;9761;50.926;5.330;2023-02-01T13:55:16;9.83;;;2.13;;
19253;SDS011;9761;50.926;5.330;2023-02-01T13:58:03;16.07;;;2.57;;
19253;SDS011;9761;50.926;5.330;2023-02-01T14:00:34;7.47;;;2.20;;
19253;SDS011;9761;50.926;5.330;2023-02-01T14:03:10;8.93;;;2.60;;
19253;SDS011;9761;50.926;5.330;2023-02-01T14:05:55;9.83;;;2.40;;
19253;SDS011;9761;50.926;5.330;2023-02-01T14:08:38;6.60;;;1.93;;
19253;SDS011;9761;50.926;5.330;2023-02-01T14:11:32;6.80;;;2.50;;
19253;SDS011;9761;50.926;5.330;2023-02-01T14:23:20;10.93;;;2.30;;
19253;SDS011;9761;50.926;5.330;2023-02-01T14:26:05;9.07;;;2.13;;
19253;SDS011;9761;50.926;5.330;2023-02-01T14:28:39;9.27;;;2.40;;
19253;SDS011;9761;50.926;5.330;2023-02-01T14:31:14;6.83;;;2.90;;
19253;SDS011;9761;50.926;5.330;2023-02-01T14:33:46;14.47;;;3.33;;
19253;SDS011;9761;50.926;5.330;2023-02-01T14:36:13;9.40;;;2.40;;
19253;SDS011;9761;50.926;5.330;2023-02-01T14:38:47;9.13;;;2.23;;
19253;SDS011;9761;50.926;5.330;2023-02-01T14:41:26;5.63;;;1.90;;
19253;SDS011;9761;50.926;5.330;2023-02-01T14:44:22;7.87;;;2.30;;
19253;SDS011;9761;50.926;5.330;2023-02-01T14:47:08;9.83;;;2.40;;
19253;SDS011;9761;50.926;5.330;2023-02-01T14:49:59;6.53;;;1.90;;
19253;SDS011;9761;50.926;5.330;2023-02-01T14:52:37;5.50;;;2.00;;
19253;SDS011;9761;50.926;5.330;2023-02-01T14:55:10;11.40;;;2.50;;
19253;SDS011;9761;50.926;5.330;2023-02-01T14:57:42;8.57;;;2.33;;
19253;SDS011;9761;50.926;5.330;2023-02-01T15:00:17;7.27;;;2.63;;
19253;SDS011;9761;50.926;5.330;2023-02-01T15:02:49;12.20;;;2.40;;
19253;SDS011;9761;50.926;5.330;2023-02-01T15:08:05;6.30;;;2.10;;
19253;SDS011;9761;50.926;5.330;2023-02-01T15:10:41;10.43;;;2.77;;
19253;SDS011;9761;50.926;5.330;2023-02-01T15:13:21;8.23;;;1.87;;
19253;SDS011;9761;50.926;5.330;2023-02-01T15:16:01;11.90;;;2.27;;
19253;SDS011;9761;50.926;5.330;2023-02-01T15:18:31;7.37;;;1.80;;
19253;SDS011;9761;50.926;5.330;2023-02-01T15:21:03;9.67;;;2.03;;
19253;SDS011;9761;50.926;5.330;2023-02-01T15:23:32;8.07;;;1.97;;
19253;SDS011;9761;50.926;5.330;2023-02-01T15:26:01;10.90;;;2.50;;
19253;SDS011;9761;50.926;5.330;2023-02-01T15:28:34;8.20;;;2.10;;
19253;SDS011;9761;50.926;5.330;2023-02-01T15:31:02;8.93;;;2.23;;
19253;SDS011;9761;50.926;5.330;2023-02-01T15:33:34;5.33;;;2.37;;
19253;SDS011;9761;50.926;5.330;2023-02-01T15:36:10;6.47;;;2.20;;
19253;SDS011;9761;50.926;5.330;2023-02-01T15:38:43;7.43;;;2.27;;
19253;SDS011;9761;50.926;5.330;2023-02-01T15:41:11;5.67;;;2.30;;
19253;SDS011;9761;50.926;5.330;2023-02-01T15:43:42;6.13;;;2.60;;
19253;SDS011;9761;50.926;5.330;2023-02-01T15:46:16;11.27;;;2.57;;
19253;SDS011;9761;50.926;5.330;2023-02-01T15:48:48;15.87;;;2.30;;
19253;SDS011;9761;50.926;5.330;2023-02-01T15:51:19;9.73;;;2.37;;
19253;SDS011;9761;50.926;5.330;2023-02-01T15:53:52;6.00;;;2.00;;
19253;SDS011;9761;50.926;5.330;2023-02-01T15:56:22;6.53;;;2.07;;
19253;SDS011;9761;50.926;5.330;2023-02-01T15:58:53;9.63;;;2.30;;
19253;SDS011;9761;50.926;5.330;2023-02-01T16:01:24;14.07;;;2.13;;
19253;SDS011;9761;50.926;5.330;2023-02-01T16:04:01;11.60;;;2.37;;
19253;SDS011;9761;50.926;5.330;2023-02-01T16:06:44;10.17;;;3.13;;